Rankings de siempre
Mejores tiempos personales válidos de equipo a través de todos los eventos y temporadas. Cada equipo aparece una vez por división.
Busca por nombre y abre la página donde está clasificado este récord de división.
23,833 equipos clasificados
| Pos. | Pos. AG | Equipo | Nacionalidad | Categoría de edad | TiempoMejor tiempo | Diferencia |
|---|---|---|---|---|---|---|
| 21501 | #8517 | Massimo Perli & Alberto BarileM 30-34 · AG #8517 | -- | M 30-34 | 1:28:10 | +39:39 |
| 21502 | #8518 | Chris Hermans & Adrien RappeBEL · M 30-34 · AG #8518 | BEL | M 30-34 | 1:28:10 | +39:39 |
| 21503 | #3402 | Carlos Castro & José EspinozaMEX · M 25-29 · AG #3402 | MEX | M 25-29 | 1:28:10 | +39:39 |
| 21504 | #3403 | 砺 杨 & 吉祥 赵CHN · M 25-29 · AG #3403 | CHN | M 25-29 | 1:28:10 | +39:39 |
| 21505 | -- | Rawand Zankana & Jesper KnolNED · M MU29 | NED | M MU29 | 1:28:11 | +39:40 |
| 21506 | #8519 | Chris Mcgrath & Peter SweeneyM 30-34 · AG #8519 | -- | M 30-34 | 1:28:11 | +39:40 |
| 21507 | #552 | Anders Uhlin & Erik UhlinSWE · M 45-49 · AG #552 | SWE | M 45-49 | 1:28:12 | +39:41 |
| 21508 | #8520 | Rhynach van der Lith & Dewald Van RooyenRSA · M 30-34 · AG #8520 | RSA | M 30-34 | 1:28:12 | +39:41 |
| 21509 | #3404 | Cristian Maylof & Jack SullivanUSA · M 25-29 · AG #3404 | USA | M 25-29 | 1:28:12 | +39:41 |
| 21510 | #1289 | Louis Schmutz & Tim AderFRA · M 16-24 · AG #1289 | FRA | M 16-24 | 1:28:12 | +39:41 |
| 21511 | #3405 | Caleb Mcdonald & Kyle JalbertUSA · M 25-29 · AG #3405 | USA | M 25-29 | 1:28:12 | +39:41 |
| 21512 | #2538 | Pedro Marques & Augusto CostaPOR · M 40-44 · AG #2538 | POR | M 40-44 | 1:28:12 | +39:41 |
| 21513 | #3406 | Will Jervis & Rahaam ParikhaahGBR · M 25-29 · AG #3406 | GBR | M 25-29 | 1:28:12 | +39:41 |
| 21514 | #3407 | Maximilian Maria Willeit & Thomas KlieberM 25-29 · AG #3407 | -- | M 25-29 | 1:28:13 | +39:42 |
| 21515 | #3408 | Alfonso Di Napoli & Matteo MilanesiITA · M 25-29 · AG #3408 | ITA | M 25-29 | 1:28:13 | +39:42 |
| 21516 | #3225 | 嘉圣 陈 & 天琛 潘CHN · M 35-39 · AG #3225 | CHN | M 35-39 | 1:28:13 | +39:42 |
| 21517 | #2539 | Richard Mcclelland & Brett CraigAUS · M 40-44 · AG #2539 | AUS | M 40-44 | 1:28:13 | +39:42 |
| 21518 | #8521 | Mikel Caballero Gomez & David HinojalESP · M 30-34 · AG #8521 | ESP | M 30-34 | 1:28:13 | +39:42 |
| 21519 | #3226 | 木汗麦 马 & 亦超 封CHN · M 35-39 · AG #3226 | CHN | M 35-39 | 1:28:13 | +39:42 |
| 21520 | #3409 | Maximilian Begmann & Noah MagerGER · M 25-29 · AG #3409 | GER | M 25-29 | 1:28:13 | +39:42 |
| 21521 | #8523 | 도원 장 & 정안 서KOR · M 30-34 · AG #8523 | KOR | M 30-34 | 1:28:14 | +39:43 |
| 21522 | #406 | Patric Heeb & Stephen Robert WarrenSUI · M 50-54 · AG #406 | SUI | M 50-54 | 1:28:14 | +39:43 |
| 21523 | #8522 | Jan Hernando & Andrés ChamarroESP · M 30-34 · AG #8522 | ESP | M 30-34 | 1:28:14 | +39:43 |
| 21524 | #3227 | CHIH WEI WU & YAO TE HUANGTPE · M 35-39 · AG #3227 | TPE | M 35-39 | 1:28:14 | +39:43 |
| 21525 | #3228 | Luke Rogers & Blair ChargeGBR · M 35-39 · AG #3228 | GBR | M 35-39 | 1:28:14 | +39:43 |
Página 861 de 954